Time;durP1;ratioP1;P1;durP2;ratioP2;P2;SDS_P1;SDS_P2;PMS_P1;PMS_P2;Temp;Humidity;BMP_temperature;BMP_pressure;BME280_temperature;BME280_humidity;BME280_pressure;Samples;Min_cycle;Max_cycle;Signal;HPM_P1;HPM_P2
2022/08/01 00:00:30;;;;;;;;;;;;;;;;;;4978410;28;19985;-82
2022/08/01 00:02:55;;;;;;;;;;;;;;;;;;4977279;28;21336;-82
2022/08/01 00:05:21;;;;;;;;;;;;;;;;;;4978635;28;19917;-82
2022/08/01 00:07:46;;;;;;;;;;;;;;;;;;4966356;28;19918;-83
2022/08/01 00:10:11;;;;;;;;;;;;;;;;;;4984217;28;19924;-82
2022/08/01 00:12:36;;;;;;;;;;;;;;;;;;4979542;28;19918;-83
2022/08/01 00:15:01;;;;;;;;;;;;;;;;;;4985284;28;20320;-83
2022/08/01 00:17:27;;;;;;;;;;;;;;;;;;4976476;28;19965;-83
2022/08/01 00:19:52;;;;;;;;;;;;;;;;;;4990193;28;20596;-83
2022/08/01 00:22:17;;;;;;;;;;;;;;;;;;4980939;28;19922;-82
2022/08/01 00:24:42;;;;;;;;;;;;;;;;;;4966322;28;19992;-82
2022/08/01 00:27:07;;;;;;;;;;;;;;;;;;4982638;28;20192;-82
2022/08/01 00:29:33;;;;;;;;;;;;;;;;;;4988865;28;19926;-82
2022/08/01 00:31:58;;;;;;;;;;;;;;;;;;4984945;28;19921;-83
2022/08/01 00:34:23;;;;;;;;;;;;;;;;;;4980011;28;19961;-83
2022/08/01 00:36:48;;;;;;;;;;;;;;;;;;4983744;28;20315;-82
2022/08/01 00:39:13;;;;;;;;;;;;;;;;;;4980951;28;20010;-83
2022/08/01 00:41:39;;;;;;;;;;;;;;;;;;4984204;28;20095;-83
2022/08/01 00:44:04;;;;;;;;;;;;;;;;;;4969735;28;20319;-83
2022/08/01 00:46:29;;;;;;;;;;;;;;;;;;4986154;28;19922;-83
2022/08/01 00:48:54;;;;;;;;;;;;;;;;;;4979192;28;19918;-82
2022/08/01 00:51:20;;;;;;;;;;;;;;;;;;4981500;28;19918;-83
2022/08/01 00:53:45;;;;;;;;;;;;;;;;;;4984506;28;20364;-83
2022/08/01 00:56:10;;;;;;;;;;;;;;;;;;4984861;28;19976;-83
2022/08/01 00:58:35;;;;;;;;;;;;;;;;;;4984132;28;19929;-83
2022/08/01 01:01:00;;;;;;;;;;;;;;;;;;4987768;28;20000;-83
2022/08/01 01:03:26;;;;;;;;;;;;;;;;;;4984029;28;19914;-83
2022/08/01 01:05:51;;;;;;;;;;;;;;;;;;4987804;28;19940;-83
2022/08/01 01:08:16;;;;;;;;;;;;;;;;;;4983936;28;19914;-83
2022/08/01 01:10:41;;;;;;;;;;;;;;;;;;4982907;28;20407;-82
2022/08/01 01:13:06;;;;;;;;;;;;;;;;;;4985062;28;19914;-83
2022/08/01 01:15:33;;;;;;;;;;;;;;;;;;4985956;28;19925;-83
2022/08/01 01:17:58;;;;;;;;;;;;;;;;;;4985079;28;19921;-83
2022/08/01 01:20:24;;;;;;;;;;;;;;;;;;4984769;28;19914;-83
2022/08/01 01:22:49;;;;;;;;;;;;;;;;;;4981317;28;19937;-83
2022/08/01 01:25:14;;;;;;;;;;;;;;;;;;4985556;28;19975;-83
2022/08/01 01:27:39;;;;;;;;;;;;;;;;;;4981102;28;19922;-82
2022/08/01 01:30:05;;;;;;;;;;;;;;;;;;4983515;28;19918;-83
2022/08/01 01:32:33;;;;;;;;;;;;;;;;;;4980474;28;19933;-83
2022/08/01 01:34:58;;;;;;;;;;;;;;;;;;4983379;28;19948;-83
2022/08/01 01:37:23;;;;;;;;;;;;;;;;;;4978101;28;19949;-83
2022/08/01 01:39:48;;;;;;;;;;;;;;;;;;4982461;28;20276;-82
2022/08/01 01:42:14;;;;;;;;;;;;;;;;;;4980547;28;19914;-83
2022/08/01 01:44:39;;;;;;;;;;;;;;;;;;4977325;28;20009;-83
2022/08/01 01:47:04;;;;;;;;;;;;;;;;;;4981370;28;20165;-83
2022/08/01 01:49:29;;;;;;;;;;;;;;;;;;4978443;28;20318;-83
2022/08/01 01:51:54;;;;;;;;;;;;;;;;;;4972481;28;19914;-83
2022/08/01 01:54:20;;;;;;;;;;;;;;;;;;4961907;28;20364;-83
2022/08/01 01:56:51;;;;;;;;;;;;;;;;;;4974645;28;19972;-83
2022/08/01 01:59:16;;;;;;;;;;;;;;;;;;4980775;28;19922;-83
2022/08/01 02:01:41;;;;;;;;;;;;;;;;;;4976299;28;19925;-82
2022/08/01 02:04:06;;;;;;;;;;;;;;;;;;4980873;28;19918;-82
2022/08/01 02:06:31;;;;;;;;;;;;;;;;;;4977557;28;19914;-83
2022/08/01 02:08:57;;;;;;;;;;;;;;;;;;4977602;28;20209;-83
2022/08/01 02:11:22;;;;;;;;;;;;;;;;;;4977822;28;19918;-83
2022/08/01 02:13:47;;;;;;;;;;;;;;;;;;4977171;28;20197;-83
2022/08/01 02:16:13;;;;;;;;;;;;;;;;;;4979856;28;19918;-83
2022/08/01 02:18:38;;;;;;;;;;;;;;;;;;4979750;28;19933;-82
2022/08/01 02:21:04;;;;;;;;;;;;;;;;;;4980775;28;19926;-83
2022/08/01 02:23:29;;;;;;;;;;;;;;;;;;4962133;28;19941;-83
2022/08/01 02:25:54;;;;;;;;;;;;;;;;;;4982761;28;19945;-83
2022/08/01 02:28:19;;;;;;;;;;;;;;;;;;4978676;28;19971;-83
2022/08/01 02:30:44;;;;;;;;;;;;;;;;;;4977971;28;20352;-83
2022/08/01 02:33:10;;;;;;;;;;;;;;;;;;4980064;28;20005;-83
2022/08/01 02:35:36;;;;;;;;;;;;;;;;;;4978318;28;20291;-83
2022/08/01 02:38:01;;;;;;;;;;;;;;;;;;4977012;28;19933;-83
2022/08/01 02:40:27;;;;;;;;;;;;;;;;;;4979298;28;19922;-83
2022/08/01 02:42:52;;;;;;;;;;;;;;;;;;4980914;28;20410;-83
2022/08/01 02:45:17;;;;;;;;;;;;;;;;;;4976795;28;20379;-83
2022/08/01 02:47:43;;;;;;;;;;;;;;;;;;4976572;28;20008;-82
2022/08/01 02:50:08;;;;;;;;;;;;;;;;;;4972934;28;20284;-83
2022/08/01 02:52:33;;;;;;;;;;;;;;;;;;4979191;28;19992;-83
2022/08/01 02:54:58;;;;;;;;;;;;;;;;;;4982488;28;19977;-83
2022/08/01 02:57:23;;;;;;;;;;;;;;;;;;4979907;28;19937;-83
2022/08/01 02:59:48;;;;;;;;;;;;;;;;;;4981271;28;19914;-82
2022/08/01 03:02:14;;;;;;;;;;;;;;;;;;4977353;28;20009;-82
2022/08/01 03:04:39;;;;;;;;;;;;;;;;;;4982421;28;19947;-83
2022/08/01 03:07:04;;;;;;;;;;;;;;;;;;4984701;28;20339;-82
2022/08/01 03:09:29;;;;;;;;;;;;;;;;;;4982021;28;19914;-82
2022/08/01 03:11:54;;;;;;;;;;;;;;;;;;4983243;28;19969;-82
2022/08/01 03:14:20;;;;;;;;;;;;;;;;;;4978019;28;19964;-83
2022/08/01 03:16:45;;;;;;;;;;;;;;;;;;4976623;28;19914;-82
2022/08/01 03:19:10;;;;;;;;;;;;;;;;;;4980791;28;20364;-82
2022/08/01 03:21:36;;;;;;;;;;;;;;;;;;4978533;28;19926;-82
2022/08/01 03:24:02;;;;;;;;;;;;;;;;;;4978867;28;19918;-82
2022/08/01 03:26:27;;;;;;;;;;;;;;;;;;4958765;28;20372;-82
2022/08/01 03:28:52;;;;;;;;;;;;;;;;;;4981397;28;19915;-82
2022/08/01 03:31:17;;;;;;;;;;;;;;;;;;4979086;28;19918;-82
2022/08/01 03:33:43;;;;;;;;;;;;;;;;;;4980602;28;19922;-82
2022/08/01 03:36:08;;;;;;;;;;;;;;;;;;4979684;28;19929;-83
2022/08/01 03:38:33;;;;;;;;;;;;;;;;;;4965952;28;20376;-82
2022/08/01 03:40:58;;;;;;;;;;;;;;;;;;4986610;28;19948;-82
2022/08/01 03:43:23;;;;;;;;;;;;;;;;;;4982119;28;19937;-83
2022/08/01 03:45:48;;;;;;;;;;;;;;;;;;4981698;28;19914;-83
2022/08/01 03:48:14;;;;;;;;;;;;;;;;;;4980261;28;19933;-83
2022/08/01 03:50:39;;;;;;;;;;;;;;;;;;4961007;28;19925;-83
2022/08/01 03:53:07;;;;;;;;;;;;;;;;;;4984869;28;20391;-83
2022/08/01 03:55:32;;;;;;;;;;;;;;;;;;4980867;28;19921;-83
2022/08/01 03:57:57;;;;;;;;;;;;;;;;;;4980263;28;19917;-84
2022/08/01 04:00:22;;;;;;;;;;;;;;;;;;4974741;28;20304;-84
2022/08/01 04:02:48;;;;;;;;;;;;;;;;;;4987374;28;19936;-84
2022/08/01 04:05:13;;;;;;;;;;;;;;;;;;4977102;28;19918;-83
2022/08/01 04:07:39;;;;;;;;;;;;;;;;;;4979369;28;20372;-84
2022/08/01 04:10:05;;;;;;;;;;;;;;;;;;4984141;28;20387;-84
2022/08/01 04:12:30;;;;;;;;;;;;;;;;;;4980467;28;19960;-84
2022/08/01 04:14:55;;;;;;;;;;;;;;;;;;4981947;28;19920;-84
2022/08/01 04:17:20;;;;;;;;;;;;;;;;;;4981035;28;20392;-84
2022/08/01 04:19:45;;;;;;;;;;;;;;;;;;4980038;28;19922;-84
2022/08/01 04:22:11;;;;;;;;;;;;;;;;;;4980596;28;19921;-84
2022/08/01 04:24:36;;;;;;;;;;;;;;;;;;4981220;28;19918;-83
2022/08/01 04:27:01;;;;;;;;;;;;;;;;;;4978751;28;19942;-84
2022/08/01 04:29:26;;;;;;;;;;;;;;;;;;4977171;28;19928;-84
2022/08/01 04:31:51;;;;;;;;;;;;;;;;;;4980751;28;20008;-84
2022/08/01 04:34:17;;;;;;;;;;;;;;;;;;4971568;28;19918;-84
2022/08/01 04:36:42;;;;;;;;;;;;;;;;;;4975074;28;19941;-84
2022/08/01 04:39:07;;;;;;;;;;;;;;;;;;4975346;28;19922;-84
2022/08/01 04:41:33;;;;;;;;;;;;;;;;;;4976014;28;19941;-84
2022/08/01 04:44:02;;;;;;;;;;;;;;;;;;4977437;28;20542;-84
2022/08/01 04:46:28;;;;;;;;;;;;;;;;;;4977598;28;19918;-84
2022/08/01 04:48:54;;;;;;;;;;;;;;;;;;4975514;28;19914;-84
2022/08/01 04:51:21;;;;;;;;;;;;;;;;;;4994562;23;19952;-86
2022/08/01 04:53:47;;;;;;;;;;;;;;;;;;4985605;28;20098;-88
2022/08/01 04:56:15;;;;;;;;;;;;;;;;;;4978556;28;19921;-87
2022/08/01 04:58:40;;;;;;;;;;;;;;;;;;4983248;28;19929;-88
2022/08/01 05:01:06;;;;;;;;;;;;;;;;;;4967518;28;19918;-87
2022/08/01 05:03:31;;;;;;;;;;;;;;;;;;4959741;28;19934;-87
2022/08/01 05:05:56;;;;;;;;;;;;;;;;;;4954197;28;20213;-87
2022/08/01 05:08:21;;;;;;;;;;;;;;;;;;4958560;28;19918;-88
2022/08/01 05:10:46;;;;;;;;;;;;;;;;;;4961245;28;19925;-88
2022/08/01 05:13:11;;;;;;;;;;;;;;;;;;4964767;28;20468;-89
2022/08/01 05:15:37;;;;;;;;;;;;;;;;;;4962166;28;19922;-89
2022/08/01 05:18:02;;;;;;;;;;;;;;;;;;4958268;28;19976;-89
2022/08/01 05:20:27;;;;;;;;;;;;;;;;;;4961421;28;19914;-89
2022/08/01 05:22:52;;;;;;;;;;;;;;;;;;4967461;28;20033;-89
2022/08/01 05:25:17;;;;;;;;;;;;;;;;;;4963310;28;19914;-89
2022/08/01 05:27:42;;;;;;;;;;;;;;;;;;4963218;28;19914;-89
2022/08/01 05:30:08;;;;;;;;;;;;;;;;;;4961488;28;19945;-89
2022/08/01 05:32:33;;;;;;;;;;;;;;;;;;4958186;28;19918;-88
2022/08/01 05:34:59;;;;;;;;;;;;;;;;;;4961813;28;19914;-88
2022/08/01 05:37:24;;;;;;;;;;;;;;;;;;4961615;28;20115;-88
2022/08/01 05:39:49;;;;;;;;;;;;;;;;;;4962618;28;19985;-88
2022/08/01 05:42:14;;;;;;;;;;;;;;;;;;4964308;28;19922;-89
2022/08/01 05:44:39;;;;;;;;;;;;;;;;;;4959900;28;19929;-89
2022/08/01 05:47:05;;;;;;;;;;;;;;;;;;4961604;28;20450;-88
2022/08/01 05:49:30;;;;;;;;;;;;;;;;;;4964409;28;20171;-88
2022/08/01 05:51:55;;;;;;;;;;;;;;;;;;4964979;28;19918;-88
2022/08/01 05:54:20;;;;;;;;;;;;;;;;;;4964850;28;20538;-88
2022/08/01 05:56:48;;;;;;;;;;;;;;;;;;4956746;28;20323;-88
2022/08/01 05:59:13;;;;;;;;;;;;;;;;;;4965128;28;19924;-88
2022/08/01 06:01:39;;;;;;;;;;;;;;;;;;4960015;28;19922;-88
2022/08/01 06:04:04;;;;;;;;;;;;;;;;;;4960218;28;20328;-88
2022/08/01 06:06:29;;;;;;;;;;;;;;;;;;4958900;28;19922;-88
2022/08/01 06:08:54;;;;;;;;;;;;;;;;;;4961859;28;20129;-88
2022/08/01 06:11:19;;;;;;;;;;;;;;;;;;4964725;28;19922;-88
2022/08/01 06:13:44;;;;;;;;;;;;;;;;;;4962682;28;20323;-89
2022/08/01 06:16:10;;;;;;;;;;;;;;;;;;4959437;28;20022;-88
2022/08/01 06:18:35;;;;;;;;;;;;;;;;;;4956289;28;19922;-88
2022/08/01 06:21:00;;;;;;;;;;;;;;;;;;4957706;28;19937;-88
2022/08/01 06:23:25;;;;;;;;;;;;;;;;;;4963167;28;19937;-88
2022/08/01 06:25:50;;;;;;;;;;;;;;;;;;4960771;28;19960;-89
2022/08/01 06:28:15;;;;;;;;;;;;;;;;;;4964661;28;19914;-88
2022/08/01 06:30:41;;;;;;;;;;;;;;;;;;4958614;28;20384;-88
2022/08/01 06:33:06;;;;;;;;;;;;;;;;;;4966305;28;19924;-89
2022/08/01 06:35:31;;;;;;;;;;;;;;;;;;4960908;28;20303;-88
2022/08/01 06:37:56;;;;;;;;;;;;;;;;;;4964893;28;19918;-88
2022/08/01 06:40:21;;;;;;;;;;;;;;;;;;4957283;28;20000;-89
2022/08/01 06:42:47;;;;;;;;;;;;;;;;;;4960060;28;19914;-88
2022/08/01 06:45:12;;;;;;;;;;;;;;;;;;4957081;28;20376;-88
2022/08/01 06:47:37;;;;;;;;;;;;;;;;;;4958206;28;20295;-88
2022/08/01 06:50:02;;;;;;;;;;;;;;;;;;4964011;28;19922;-88
2022/08/01 06:52:27;;;;;;;;;;;;;;;;;;4958152;28;19932;-88
2022/08/01 06:54:52;;;;;;;;;;;;;;;;;;4963526;28;20000;-88
2022/08/01 06:57:18;;;;;;;;;;;;;;;;;;4960040;28;19925;-88
2022/08/01 06:59:43;;;;;;;;;;;;;;;;;;4957724;28;19922;-89
2022/08/01 07:02:08;;;;;;;;;;;;;;;;;;4967111;28;20367;-88
2022/08/01 07:04:33;;;;;;;;;;;;;;;;;;4965391;28;20380;-89
2022/08/01 07:06:58;;;;;;;;;;;;;;;;;;4948267;28;19914;-90
2022/08/01 07:09:24;;;;;;;;;;;;;;;;;;4961031;28;19919;-89
2022/08/01 07:11:50;;;;;;;;;;;;;;;;;;4964778;28;19914;-90
2022/08/01 07:14:15;;;;;;;;;;;;;;;;;;4966891;28;19922;-90
2022/08/01 07:16:40;;;;;;;;;;;;;;;;;;4961821;28;19922;-90
2022/08/01 07:19:05;;;;;;;;;;;;;;;;;;4965668;28;20036;-89
2022/08/01 07:21:31;;;;;;;;;;;;;;;;;;4958137;28;19945;-88
2022/08/01 07:23:56;;;;;;;;;;;;;;;;;;4954465;28;19914;-88
2022/08/01 07:26:21;;;;;;;;;;;;;;;;;;4960213;28;19972;-89
2022/08/01 07:28:46;;;;;;;;;;;;;;;;;;4957388;28;19969;-88
2022/08/01 07:31:11;;;;;;;;;;;;;;;;;;4959409;28;19922;-89
2022/08/01 07:33:36;;;;;;;;;;;;;;;;;;4959022;28;20022;-88
2022/08/01 07:36:03;;;;;;;;;;;;;;;;;;4961233;28;19914;-90
2022/08/01 07:38:28;;;;;;;;;;;;;;;;;;4962880;28;20017;-89
2022/08/01 07:40:54;;;;;;;;;;;;;;;;;;4960811;28;20009;-90
2022/08/01 07:43:19;;;;;;;;;;;;;;;;;;4955974;28;19964;-88
2022/08/01 07:45:45;;;;;;;;;;;;;;;;;;4957009;28;20017;-88
2022/08/01 07:48:10;;;;;;;;;;;;;;;;;;4962347;28;20249;-88
2022/08/01 07:50:35;;;;;;;;;;;;;;;;;;4959525;28;19923;-88
2022/08/01 07:53:00;;;;;;;;;;;;;;;;;;4946412;28;19922;-89
2022/08/01 07:55:26;;;;;;;;;;;;;;;;;;4961243;28;19952;-89
2022/08/01 07:57:51;;;;;;;;;;;;;;;;;;4956621;28;19930;-89
2022/08/01 08:00:16;;;;;;;;;;;;;;;;;;4962040;28;19942;-89
2022/08/01 08:02:41;;;;;;;;;;;;;;;;;;4965571;28;19923;-88
2022/08/01 08:05:07;;;;;;;;;;;;;;;;;;4957415;28;20009;-89
2022/08/01 08:07:32;;;;;;;;;;;;;;;;;;4954413;28;20376;-89
2022/08/01 08:09:57;;;;;;;;;;;;;;;;;;4962763;28;19944;-88
2022/08/01 08:12:22;;;;;;;;;;;;;;;;;;4957703;28;19977;-88
2022/08/01 08:14:47;;;;;;;;;;;;;;;;;;4962735;28;19923;-88
2022/08/01 08:17:13;;;;;;;;;;;;;;;;;;4963228;28;20321;-88
2022/08/01 08:19:39;;;;;;;;;;;;;;;;;;4953980;28;19925;-88
2022/08/01 08:22:04;;;;;;;;;;;;;;;;;;4956406;28;20352;-88
2022/08/01 08:24:29;;;;;;;;;;;;;;;;;;4949267;28;19925;-88
2022/08/01 08:26:54;;;;;;;;;;;;;;;;;;4964939;28;19934;-88
2022/08/01 08:29:19;;;;;;;;;;;;;;;;;;4959558;28;19936;-89
2022/08/01 08:31:44;;;;;;;;;;;;;;;;;;4967240;28;20448;-89
2022/08/01 08:34:10;;;;;;;;;;;;;;;;;;4964454;28;19914;-88
2022/08/01 08:36:35;;;;;;;;;;;;;;;;;;4969111;28;19962;-89
2022/08/01 08:39:00;;;;;;;;;;;;;;;;;;4977712;28;19972;-88
2022/08/01 08:41:25;;;;;;;;;;;;;;;;;;4979294;28;19921;-89
2022/08/01 08:43:50;;;;;;;;;;;;;;;;;;4973878;28;20423;-90
2022/08/01 08:46:16;;;;;;;;;;;;;;;;;;4975740;28;19921;-89
2022/08/01 08:48:41;;;;;;;;;;;;;;;;;;4974287;28;20378;-88
2022/08/01 08:51:08;;;;;;;;;;;;;;;;;;4972049;28;20398;-89
2022/08/01 08:53:34;;;;;;;;;;;;;;;;;;4972621;28;19921;-88
2022/08/01 08:55:59;;;;;;;;;;;;;;;;;;4975577;28;19921;-88
2022/08/01 08:58:24;;;;;;;;;;;;;;;;;;4971625;28;19917;-90
2022/08/01 09:00:50;;;;;;;;;;;;;;;;;;4966822;28;20958;-88
2022/08/01 09:03:15;;;;;;;;;;;;;;;;;;4964775;28;19965;-89
2022/08/01 09:05:40;;;;;;;;;;;;;;;;;;4968276;28;19965;-88
2022/08/01 09:08:05;;;;;;;;;;;;;;;;;;4971596;28;20395;-89
2022/08/01 09:10:31;;;;;;;;;;;;;;;;;;4964751;28;20340;-89
2022/08/01 09:12:56;;;;;;;;;;;;;;;;;;4969841;28;19918;-89
2022/08/01 09:15:21;;;;;;;;;;;;;;;;;;4969742;28;19952;-88
2022/08/01 09:17:46;;;;;;;;;;;;;;;;;;4974337;28;19914;-87
2022/08/01 09:20:11;;;;;;;;;;;;;;;;;;4973821;28;19937;-88
2022/08/01 09:22:38;;;;;;;;;;;;;;;;;;4970289;28;20749;-87
2022/08/01 09:25:03;;;;;;;;;;;;;;;;;;4973680;28;19945;-89
2022/08/01 09:27:28;;;;;;;;;;;;;;;;;;4971609;28;20447;-88
2022/08/01 09:29:53;;;;;;;;;;;;;;;;;;4968251;28;19914;-89
2022/08/01 09:32:18;;;;;;;;;;;;;;;;;;4967336;28;19914;-89
2022/08/01 09:34:46;;;;;;;;;;;;;;;;;;4971817;28;19914;-88
2022/08/01 09:37:11;;;;;;;;;;;;;;;;;;4970841;28;20017;-88
2022/08/01 09:39:37;;;;;;;;;;;;;;;;;;4969562;28;20076;-89
2022/08/01 09:42:02;;;;;;;;;;;;;;;;;;4970205;28;19918;-87
2022/08/01 09:44:27;;;;;;;;;;;;;;;;;;4968804;28;20313;-88
2022/08/01 09:46:52;;;;;;;;;;;;;;;;;;4972815;28;19914;-88
2022/08/01 09:49:18;;;;;;;;;;;;;;;;;;4974003;28;19934;-89
2022/08/01 09:51:43;;;;;;;;;;;;;;;;;;4972492;28;19925;-88
2022/08/01 09:54:08;;;;;;;;;;;;;;;;;;4967006;28;19910;-89
2022/08/01 09:56:33;;;;;;;;;;;;;;;;;;4975576;28;19917;-87
2022/08/01 09:58:59;;;;;;;;;;;;;;;;;;4966348;28;20379;-90
2022/08/01 10:01:24;;;;;;;;;;;;;;;;;;4966287;28;19937;-88
2022/08/01 10:03:49;;;;;;;;;;;;;;;;;;4963844;28;19957;-87
2022/08/01 10:06:14;;;;;;;;;;;;;;;;;;4969461;28;19921;-88
2022/08/01 10:08:39;;;;;;;;;;;;;;;;;;4969372;28;19917;-88
2022/08/01 10:11:05;;;;;;;;;;;;;;;;;;4971285;28;20368;-89
2022/08/01 10:13:30;;;;;;;;;;;;;;;;;;4971286;28;19969;-89
2022/08/01 10:15:55;;;;;;;;;;;;;;;;;;4971264;28;19937;-89
2022/08/01 10:18:20;;;;;;;;;;;;;;;;;;4972604;28;19922;-91
2022/08/01 10:20:45;;;;;;;;;;;;;;;;;;4968725;28;19914;-91
2022/08/01 10:23:10;;;;;;;;;;;;;;;;;;4966800;28;19922;-87
2022/08/01 10:25:36;;;;;;;;;;;;;;;;;;4968079;28;19964;-91
2022/08/01 10:28:01;;;;;;;;;;;;;;;;;;4970711;28;20009;-89
2022/08/01 10:30:26;;;;;;;;;;;;;;;;;;4953006;28;19930;-88
2022/08/01 10:32:52;;;;;;;;;;;;;;;;;;4962551;28;19925;-90
2022/08/01 10:35:17;;;;;;;;;;;;;;;;;;4972205;28;20513;-90
2022/08/01 10:37:42;;;;;;;;;;;;;;;;;;4969331;28;19918;-92
2022/08/01 10:40:07;;;;;;;;;;;;;;;;;;4975855;28;19914;-89
2022/08/01 10:42:33;;;;;;;;;;;;;;;;;;4971982;28;19914;-89
2022/08/01 10:44:58;;;;;;;;;;;;;;;;;;4970328;28;19977;-89
2022/08/01 10:47:23;;;;;;;;;;;;;;;;;;4973054;28;19914;-89
2022/08/01 10:49:48;;;;;;;;;;;;;;;;;;4969859;28;20038;-90
2022/08/01 10:52:13;;;;;;;;;;;;;;;;;;4964367;28;20042;-90
2022/08/01 10:54:39;;;;;;;;;;;;;;;;;;4963254;28;19921;-90
2022/08/01 10:57:06;;;;;;;;;;;;;;;;;;4966127;28;20403;-89
2022/08/01 10:59:31;;;;;;;;;;;;;;;;;;4964602;28;20528;-90
2022/08/01 11:02:00;;;;;;;;;;;;;;;;;;4965301;28;19918;-90
2022/08/01 11:04:25;;;;;;;;;;;;;;;;;;4967204;28;19953;-91
2022/08/01 11:06:50;;;;;;;;;;;;;;;;;;4967532;28;20612;-90
2022/08/01 11:09:15;;;;;;;;;;;;;;;;;;4964381;28;19921;-89
2022/08/01 11:11:41;;;;;;;;;;;;;;;;;;4969686;28;19922;-90
2022/08/01 11:14:12;;;;;;;;;;;;;;;;;;4963840;28;20330;-87
2022/08/01 11:16:37;;;;;;;;;;;;;;;;;;4966347;28;19921;-89
2022/08/01 11:19:03;;;;;;;;;;;;;;;;;;4969432;28;20073;-88
2022/08/01 11:21:28;;;;;;;;;;;;;;;;;;4968049;28;20368;-89
2022/08/01 11:23:53;;;;;;;;;;;;;;;;;;4960620;28;20071;-89
2022/08/01 11:26:18;;;;;;;;;;;;;;;;;;4965035;28;21780;-89
2022/08/01 11:28:44;;;;;;;;;;;;;;;;;;4966076;28;19921;-87
2022/08/01 11:31:11;;;;;;;;;;;;;;;;;;4970696;28;19921;-89
2022/08/01 11:33:36;;;;;;;;;;;;;;;;;;4965640;28;19914;-90
2022/08/01 11:36:01;;;;;;;;;;;;;;;;;;4962897;28;19937;-91
2022/08/01 11:38:27;;;;;;;;;;;;;;;;;;4967643;28;19945;-90
2022/08/01 11:40:55;;;;;;;;;;;;;;;;;;4971643;28;19996;-89
2022/08/01 11:43:20;;;;;;;;;;;;;;;;;;4974353;28;19921;-89
2022/08/01 11:45:51;;;;;;;;;;;;;;;;;;4976790;28;19909;-90
2022/08/01 11:48:16;;;;;;;;;;;;;;;;;;4968692;28;19945;-89
2022/08/01 11:50:41;;;;;;;;;;;;;;;;;;4969098;28;19930;-90
2022/08/01 11:53:07;;;;;;;;;;;;;;;;;;4972630;28;19911;-91
2022/08/01 11:55:32;;;;;;;;;;;;;;;;;;4965603;28;20633;-90
2022/08/01 11:57:57;;;;;;;;;;;;;;;;;;4962051;28;19922;-90
2022/08/01 12:00:23;;;;;;;;;;;;;;;;;;4964265;28;19918;-90
2022/08/01 12:02:48;;;;;;;;;;;;;;;;;;4965720;28;19918;-90
2022/08/01 12:05:14;;;;;;;;;;;;;;;;;;4967999;28;19914;-90
2022/08/01 12:07:39;;;;;;;;;;;;;;;;;;4965631;28;19925;-89
2022/08/01 12:10:05;;;;;;;;;;;;;;;;;;4970948;28;20000;-89
2022/08/01 12:12:30;;;;;;;;;;;;;;;;;;4966176;28;19918;-87
2022/08/01 12:14:58;;;;;;;;;;;;;;;;;;4960596;28;19914;-90
2022/08/01 12:17:23;;;;;;;;;;;;;;;;;;4969647;28;19914;-89
2022/08/01 12:19:48;;;;;;;;;;;;;;;;;;4971037;28;20442;-87
2022/08/01 12:22:13;;;;;;;;;;;;;;;;;;4971804;28;19914;-87
2022/08/01 12:24:38;;;;;;;;;;;;;;;;;;4971009;28;19922;-86
2022/08/01 12:27:03;;;;;;;;;;;;;;;;;;4968437;28;19925;-90
2022/08/01 12:29:29;;;;;;;;;;;;;;;;;;4970371;28;19921;-89
2022/08/01 12:31:54;;;;;;;;;;;;;;;;;;4974986;28;19918;-90
2022/08/01 12:34:19;;;;;;;;;;;;;;;;;;4974254;28;20049;-90
2022/08/01 12:36:44;;;;;;;;;;;;;;;;;;4977445;28;19914;-91
2022/08/01 12:39:09;;;;;;;;;;;;;;;;;;4976042;28;20295;-90
2022/08/01 12:41:36;;;;;;;;;;;;;;;;;;4958632;28;19985;-90
2022/08/01 12:44:01;;;;;;;;;;;;;;;;;;4976442;28;19922;-90
2022/08/01 12:46:26;;;;;;;;;;;;;;;;;;4979739;28;20068;-91
2022/08/01 12:48:51;;;;;;;;;;;;;;;;;;4969938;28;19918;-90
2022/08/01 12:51:17;;;;;;;;;;;;;;;;;;4968968;28;20317;-90
2022/08/01 12:53:42;;;;;;;;;;;;;;;;;;4970763;28;19925;-89
2022/08/01 12:56:07;;;;;;;;;;;;;;;;;;4968693;28;19925;-91
2022/08/01 12:58:32;;;;;;;;;;;;;;;;;;4976165;28;20410;-90
2022/08/01 13:00:57;;;;;;;;;;;;;;;;;;4980311;28;20367;-89
2022/08/01 13:03:23;;;;;;;;;;;;;;;;;;4976875;28;19922;-89
2022/08/01 13:05:48;;;;;;;;;;;;;;;;;;4974182;28;19918;-90
2022/08/01 13:08:13;;;;;;;;;;;;;;;;;;4970244;28;19969;-89
2022/08/01 13:10:38;;;;;;;;;;;;;;;;;;4975493;28;19920;-88
2022/08/01 13:13:03;;;;;;;;;;;;;;;;;;4972840;28;19960;-90
2022/08/01 13:15:31;;;;;;;;;;;;;;;;;;4972386;28;19918;-90
2022/08/01 13:17:56;;;;;;;;;;;;;;;;;;4974798;28;19933;-91
2022/08/01 13:20:21;;;;;;;;;;;;;;;;;;4970099;28;19918;-91
2022/08/01 13:22:47;;;;;;;;;;;;;;;;;;4975148;28;19914;-92
2022/08/01 13:25:12;;;;;;;;;;;;;;;;;;4983029;28;20394;-88
2022/08/01 13:27:37;;;;;;;;;;;;;;;;;;4966909;28;19959;-87
2022/08/01 13:30:02;;;;;;;;;;;;;;;;;;4972544;28;20323;-90
2022/08/01 13:32:30;;;;;;;;;;;;;;;;;;4973992;28;19910;-90
2022/08/01 13:34:55;;;;;;;;;;;;;;;;;;4972589;28;19914;-90
2022/08/01 13:37:20;;;;;;;;;;;;;;;;;;4973575;28;20407;-89
2022/08/01 13:39:47;;;;;;;;;;;;;;;;;;4973041;28;19930;-88
2022/08/01 13:42:12;;;;;;;;;;;;;;;;;;4974388;28;19918;-89
2022/08/01 13:44:37;;;;;;;;;;;;;;;;;;4973544;28;20009;-89
2022/08/01 13:47:02;;;;;;;;;;;;;;;;;;4972881;28;20009;-88
2022/08/01 13:49:27;;;;;;;;;;;;;;;;;;4972309;28;20006;-89
2022/08/01 13:51:53;;;;;;;;;;;;;;;;;;4969210;28;20300;-89
2022/08/01 13:54:18;;;;;;;;;;;;;;;;;;4972341;28;20388;-88
2022/08/01 13:56:43;;;;;;;;;;;;;;;;;;4970264;28;19970;-89
2022/08/01 13:59:08;;;;;;;;;;;;;;;;;;4974351;28;19918;-90
2022/08/01 14:01:33;;;;;;;;;;;;;;;;;;4973900;28;20028;-88
2022/08/01 14:03:59;;;;;;;;;;;;;;;;;;4973791;28;20402;-89
2022/08/01 14:06:24;;;;;;;;;;;;;;;;;;4973670;28;19911;-89
2022/08/01 14:08:49;;;;;;;;;;;;;;;;;;4964734;28;19937;-88
2022/08/01 14:11:15;;;;;;;;;;;;;;;;;;4976103;28;20001;-88
2022/08/01 14:13:40;;;;;;;;;;;;;;;;;;4970743;28;20299;-90
2022/08/01 14:16:05;;;;;;;;;;;;;;;;;;4972809;28;19950;-90
2022/08/01 14:18:30;;;;;;;;;;;;;;;;;;4966787;28;19956;-89
2022/08/01 14:20:56;;;;;;;;;;;;;;;;;;4974004;28;19910;-90
2022/08/01 14:23:21;;;;;;;;;;;;;;;;;;4968066;28;19918;-89
2022/08/01 14:25:46;;;;;;;;;;;;;;;;;;4972092;28;19945;-91
2022/08/01 14:28:11;;;;;;;;;;;;;;;;;;4967601;28;19925;-89
2022/08/01 14:30:36;;;;;;;;;;;;;;;;;;4972217;28;19914;-91
2022/08/01 14:33:01;;;;;;;;;;;;;;;;;;4964718;28;19915;-90
2022/08/01 14:35:27;;;;;;;;;;;;;;;;;;4976214;28;19917;-90
2022/08/01 14:37:52;;;;;;;;;;;;;;;;;;4969011;28;20344;-91
2022/08/01 14:40:20;;;;;;;;;;;;;;;;;;4971205;28;20372;-88
2022/08/01 14:43:00;;;;;;;;;;;;;;;;;;5033085;28;19964;-86
2022/08/01 14:45:26;;;;;;;;;;;;;;;;;;5041528;28;19913;-86
2022/08/01 14:50:39;;;;;;;;;;;;;;;;;;5038420;28;19920;-87
2022/08/01 14:53:04;;;;;;;;;;;;;;;;;;5034475;28;19909;-87
2022/08/01 14:58:14;;;;;;;;;;;;;;;;;;5032069;28;19980;-88
2022/08/01 15:00:49;;;;;;;;;;;;;;;;;;5042567;28;19917;-89
2022/08/01 15:03:17;;;;;;;;;;;;;;;;;;5030353;28;19921;-88
2022/08/01 15:05:47;;;;;;;;;;;;;;;;;;5033742;28;20048;-88
2022/08/01 15:08:12;;;;;;;;;;;;;;;;;;5043626;28;19924;-88
2022/08/01 15:10:37;;;;;;;;;;;;;;;;;;5033276;28;19913;-87
2022/08/01 15:13:03;;;;;;;;;;;;;;;;;;5036282;28;19924;-87
2022/08/01 15:15:35;;;;;;;;;;;;;;;;;;5037559;28;20474;-88
2022/08/01 15:18:00;;;;;;;;;;;;;;;;;;5030089;28;19918;-89
2022/08/01 15:20:26;;;;;;;;;;;;;;;;;;5029428;28;20408;-88
2022/08/01 15:22:52;;;;;;;;;;;;;;;;;;5035502;28;19963;-88
2022/08/01 15:25:20;;;;;;;;;;;;;;;;;;5032627;28;19910;-88
2022/08/01 15:27:45;;;;;;;;;;;;;;;;;;5035222;28;19916;-86
2022/08/01 15:30:10;;;;;;;;;;;;;;;;;;5028544;28;19910;-86
2022/08/01 15:32:35;;;;;;;;;;;;;;;;;;5031858;28;19940;-87
2022/08/01 15:35:14;;;;;;;;;;;;;;;;;;;;;
2022/08/01 15:37:42;;;;;;;;;;;;;;;;;;5037169;28;19917;-86
2022/08/01 15:40:07;;;;;;;;;;;;;;;;;;5037334;28;20031;-86
2022/08/01 15:42:35;;;;;;;;;;;;;;;;;;5037341;28;20007;-86
2022/08/01 15:45:00;;;;;;;;;;;;;;;;;;5032248;28;19959;-88
2022/08/01 15:47:26;;;;;;;;;;;;;;;;;;5036791;28;20443;-87
2022/08/01 15:50:04;;;;;;;;;;;;;;;;;;;;;
2022/08/01 15:52:29;;;;;;;;;;;;;;;;;;5027273;28;19913;-86
2022/08/01 15:54:54;;;;;;;;;;;;;;;;;;5022260;28;19933;-86
2022/08/01 15:57:20;;;;;;;;;;;;;;;;;;5023855;28;20024;-86
2022/08/01 15:59:45;;;;;;;;;;;;;;;;;;5020863;28;20260;-85
2022/08/01 16:02:13;;;;;;;;;;;;;;;;;;5026246;28;20305;-87
2022/08/01 16:04:38;;;;;;;;;;;;;;;;;;5020852;28;20004;-86
2022/08/01 16:07:03;;;;;;;;;;;;;;;;;;5019416;28;19988;-87
2022/08/01 16:09:28;;;;;;;;;;;;;;;;;;5020310;28;20000;-87
2022/08/01 16:11:59;;;;;;;;;;;;;;;;;;5025768;28;19917;-86
2022/08/01 16:14:24;;;;;;;;;;;;;;;;;;5014806;28;19913;-88
2022/08/01 16:16:49;;;;;;;;;;;;;;;;;;5014790;28;20536;-88
2022/08/01 16:31:03;;;;;;;;;;;;;;;;;;4935576;29;19952;-88
2022/08/01 16:36:22;;;;;;;;;;;;;;;;;;5023154;28;19909;-88
2022/08/01 16:38:54;;;;;;;;;;;;;;;;;;5023788;28;20473;-88
2022/08/01 16:41:28;;;;;;;;;;;;;;;;;;5018540;28;19925;-86
2022/08/01 16:43:53;;;;;;;;;;;;;;;;;;5035916;28;19925;-86
2022/08/01 16:46:18;;;;;;;;;;;;;;;;;;5017706;28;19914;-86
2022/08/01 16:48:44;;;;;;;;;;;;;;;;;;5020007;28;19933;-86
2022/08/01 16:51:09;;;;;;;;;;;;;;;;;;5016870;28;19913;-85
2022/08/01 16:53:34;;;;;;;;;;;;;;;;;;5015879;28;19921;-85